sensor_id;sensor_type;location;lat;lon;timestamp;P1;durP1;ratioP1;P2;durP2;ratioP2
80541;SDS011;69870;51.460;8.842;2023-11-21T00:00:40;25.33;;;14.13;;
80541;SDS011;69870;51.460;8.842;2023-11-21T00:03:06;30.98;;;13.77;;
80541;SDS011;69870;51.460;8.842;2023-11-21T00:05:34;26.90;;;13.02;;
80541;SDS011;69870;51.460;8.842;2023-11-21T00:08:02;24.73;;;11.02;;
80541;SDS011;69870;51.460;8.842;2023-11-21T00:10:30;23.02;;;10.43;;
80541;SDS011;69870;51.460;8.842;2023-11-21T00:12:56;21.55;;;9.80;;
80541;SDS011;69870;51.460;8.842;2023-11-21T00:15:23;27.20;;;10.82;;
80541;SDS011;69870;51.460;8.842;2023-11-21T00:17:51;23.17;;;9.52;;
80541;SDS011;69870;51.460;8.842;2023-11-21T00:20:18;23.65;;;8.73;;
80541;SDS011;69870;51.460;8.842;2023-11-21T00:22:45;18.92;;;8.30;;
80541;SDS011;69870;51.460;8.842;2023-11-21T00:25:13;28.02;;;9.10;;
80541;SDS011;69870;51.460;8.842;2023-11-21T00:27:42;25.38;;;8.98;;
80541;SDS011;69870;51.460;8.842;2023-11-21T00:30:11;23.20;;;9.55;;
80541;SDS011;69870;51.460;8.842;2023-11-21T00:32:39;20.25;;;9.05;;
80541;SDS011;69870;51.460;8.842;2023-11-21T00:35:05;26.05;;;8.93;;
80541;SDS011;69870;51.460;8.842;2023-11-21T00:37:32;15.57;;;8.55;;
80541;SDS011;69870;51.460;8.842;2023-11-21T00:39:59;19.63;;;8.20;;
80541;SDS011;69870;51.460;8.842;2023-11-21T00:42:28;17.05;;;7.60;;
80541;SDS011;69870;51.460;8.842;2023-11-21T00:44:54;20.98;;;8.10;;
80541;SDS011;69870;51.460;8.842;2023-11-21T00:47:21;25.10;;;7.70;;
80541;SDS011;69870;51.460;8.842;2023-11-21T00:49:47;21.80;;;7.25;;
80541;SDS011;69870;51.460;8.842;2023-11-21T00:52:14;19.85;;;7.82;;
80541;SDS011;69870;51.460;8.842;2023-11-21T00:54:41;24.42;;;9.48;;
80541;SDS011;69870;51.460;8.842;2023-11-21T00:57:08;16.77;;;6.55;;
80541;SDS011;69870;51.460;8.842;2023-11-21T00:59:38;22.95;;;7.82;;
80541;SDS011;69870;51.460;8.842;2023-11-21T01:02:06;25.83;;;6.80;;
80541;SDS011;69870;51.460;8.842;2023-11-21T01:04:35;17.85;;;6.50;;
80541;SDS011;69870;51.460;8.842;2023-11-21T01:07:02;16.70;;;6.20;;
80541;SDS011;69870;51.460;8.842;2023-11-21T01:09:30;18.38;;;7.53;;
80541;SDS011;69870;51.460;8.842;2023-11-21T01:11:57;18.65;;;6.63;;
80541;SDS011;69870;51.460;8.842;2023-11-21T01:14:24;21.85;;;6.63;;
80541;SDS011;69870;51.460;8.842;2023-11-21T01:16:53;16.52;;;6.97;;
80541;SDS011;69870;51.460;8.842;2023-11-21T01:19:20;23.08;;;7.82;;
80541;SDS011;69870;51.460;8.842;2023-11-21T01:21:47;17.70;;;6.40;;
80541;SDS011;69870;51.460;8.842;2023-11-21T01:24:14;27.77;;;7.32;;
80541;SDS011;69870;51.460;8.842;2023-11-21T01:26:41;22.45;;;8.02;;
80541;SDS011;69870;51.460;8.842;2023-11-21T01:29:08;17.05;;;6.97;;
80541;SDS011;69870;51.460;8.842;2023-11-21T01:31:35;21.55;;;8.85;;
80541;SDS011;69870;51.460;8.842;2023-11-21T01:34:03;20.90;;;8.25;;
80541;SDS011;69870;51.460;8.842;2023-11-21T01:36:30;32.53;;;8.32;;
80541;SDS011;69870;51.460;8.842;2023-11-21T01:38:58;26.92;;;8.52;;
80541;SDS011;69870;51.460;8.842;2023-11-21T01:41:25;20.92;;;7.15;;
80541;SDS011;69870;51.460;8.842;2023-11-21T01:43:52;17.88;;;6.70;;
80541;SDS011;69870;51.460;8.842;2023-11-21T01:46:18;19.65;;;6.35;;
80541;SDS011;69870;51.460;8.842;2023-11-21T01:48:45;16.33;;;6.68;;
80541;SDS011;69870;51.460;8.842;2023-11-21T01:51:15;17.85;;;5.93;;
80541;SDS011;69870;51.460;8.842;2023-11-21T01:53:43;16.80;;;6.43;;
80541;SDS011;69870;51.460;8.842;2023-11-21T01:56:11;31.15;;;7.25;;
80541;SDS011;69870;51.460;8.842;2023-11-21T01:58:39;17.38;;;7.45;;
80541;SDS011;69870;51.460;8.842;2023-11-21T02:01:05;17.98;;;7.22;;
80541;SDS011;69870;51.460;8.842;2023-11-21T02:03:32;18.63;;;7.00;;
80541;SDS011;69870;51.460;8.842;2023-11-21T02:05:59;27.42;;;7.18;;
80541;SDS011;69870;51.460;8.842;2023-11-21T02:08:26;21.10;;;7.47;;
80541;SDS011;69870;51.460;8.842;2023-11-21T02:10:53;19.42;;;7.63;;
80541;SDS011;69870;51.460;8.842;2023-11-21T02:13:20;23.95;;;7.88;;
80541;SDS011;69870;51.460;8.842;2023-11-21T02:15:46;29.42;;;11.68;;
80541;SDS011;69870;51.460;8.842;2023-11-21T02:18:15;28.40;;;8.45;;
80541;SDS011;69870;51.460;8.842;2023-11-21T02:20:43;19.60;;;7.22;;
80541;SDS011;69870;51.460;8.842;2023-11-21T02:23:11;22.50;;;8.43;;
80541;SDS011;69870;51.460;8.842;2023-11-21T02:25:38;32.45;;;8.90;;
80541;SDS011;69870;51.460;8.842;2023-11-21T02:28:04;27.27;;;9.30;;
80541;SDS011;69870;51.460;8.842;2023-11-21T02:30:31;35.05;;;9.25;;
80541;SDS011;69870;51.460;8.842;2023-11-21T02:33:01;23.58;;;9.60;;
80541;SDS011;69870;51.460;8.842;2023-11-21T02:35:28;34.35;;;11.20;;
80541;SDS011;69870;51.460;8.842;2023-11-21T02:37:57;29.70;;;10.32;;
80541;SDS011;69870;51.460;8.842;2023-11-21T02:40:25;35.42;;;11.02;;
80541;SDS011;69870;51.460;8.842;2023-11-21T02:42:51;25.80;;;9.50;;
80541;SDS011;69870;51.460;8.842;2023-11-21T02:45:18;28.25;;;8.18;;
80541;SDS011;69870;51.460;8.842;2023-11-21T02:47:46;31.83;;;9.98;;
80541;SDS011;69870;51.460;8.842;2023-11-21T02:50:14;22.92;;;8.90;;
80541;SDS011;69870;51.460;8.842;2023-11-21T02:52:41;44.80;;;10.15;;
80541;SDS011;69870;51.460;8.842;2023-11-21T02:55:08;37.65;;;10.75;;
80541;SDS011;69870;51.460;8.842;2023-11-21T02:57:36;36.90;;;11.85;;
80541;SDS011;69870;51.460;8.842;2023-11-21T03:00:03;35.17;;;10.82;;
80541;SDS011;69870;51.460;8.842;2023-11-21T03:02:33;45.47;;;11.43;;
80541;SDS011;69870;51.460;8.842;2023-11-21T03:05:04;28.45;;;10.05;;
80541;SDS011;69870;51.460;8.842;2023-11-21T03:07:31;34.63;;;10.25;;
80541;SDS011;69870;51.460;8.842;2023-11-21T03:09:57;29.02;;;9.43;;
80541;SDS011;69870;51.460;8.842;2023-11-21T03:12:24;29.10;;;9.82;;
80541;SDS011;69870;51.460;8.842;2023-11-21T03:14:52;40.70;;;10.88;;
80541;SDS011;69870;51.460;8.842;2023-11-21T03:17:20;25.20;;;9.40;;
80541;SDS011;69870;51.460;8.842;2023-11-21T03:19:47;25.92;;;10.07;;
80541;SDS011;69870;51.460;8.842;2023-11-21T03:22:14;33.15;;;10.80;;
80541;SDS011;69870;51.460;8.842;2023-11-21T03:24:40;24.60;;;9.98;;
80541;SDS011;69870;51.460;8.842;2023-11-21T03:27:07;23.60;;;9.77;;
80541;SDS011;69870;51.460;8.842;2023-11-21T03:29:34;29.92;;;10.00;;
80541;SDS011;69870;51.460;8.842;2023-11-21T03:32:01;28.33;;;10.10;;
80541;SDS011;69870;51.460;8.842;2023-11-21T03:34:28;33.97;;;9.35;;
80541;SDS011;69870;51.460;8.842;2023-11-21T03:36:55;29.05;;;9.15;;
80541;SDS011;69870;51.460;8.842;2023-11-21T03:39:22;20.58;;;8.05;;
80541;SDS011;69870;51.460;8.842;2023-11-21T03:41:49;25.05;;;9.23;;
80541;SDS011;69870;51.460;8.842;2023-11-21T03:44:17;32.95;;;9.10;;
80541;SDS011;69870;51.460;8.842;2023-11-21T03:46:44;31.05;;;8.77;;
80541;SDS011;69870;51.460;8.842;2023-11-21T03:49:12;24.30;;;9.40;;
80541;SDS011;69870;51.460;8.842;2023-11-21T03:51:40;25.45;;;9.63;;
80541;SDS011;69870;51.460;8.842;2023-11-21T03:54:07;24.52;;;9.30;;
80541;SDS011;69870;51.460;8.842;2023-11-21T03:56:33;17.08;;;7.70;;
80541;SDS011;69870;51.460;8.842;2023-11-21T03:59:00;23.83;;;9.15;;
80541;SDS011;69870;51.460;8.842;2023-11-21T04:01:26;26.48;;;9.30;;
80541;SDS011;69870;51.460;8.842;2023-11-21T04:03:53;22.85;;;9.73;;
80541;SDS011;69870;51.460;8.842;2023-11-21T04:06:21;26.08;;;10.02;;
80541;SDS011;69870;51.460;8.842;2023-11-21T04:08:47;26.00;;;9.27;;
80541;SDS011;69870;51.460;8.842;2023-11-21T04:11:14;19.90;;;9.18;;
80541;SDS011;69870;51.460;8.842;2023-11-21T04:13:40;24.65;;;8.57;;
80541;SDS011;69870;51.460;8.842;2023-11-21T04:16:08;27.02;;;9.65;;
80541;SDS011;69870;51.460;8.842;2023-11-21T04:18:35;24.98;;;9.32;;
80541;SDS011;69870;51.460;8.842;2023-11-21T04:21:02;24.75;;;10.43;;
80541;SDS011;69870;51.460;8.842;2023-11-21T04:23:30;25.17;;;11.77;;
80541;SDS011;69870;51.460;8.842;2023-11-21T04:25:57;30.25;;;9.30;;
80541;SDS011;69870;51.460;8.842;2023-11-21T04:28:24;28.88;;;10.23;;
80541;SDS011;69870;51.460;8.842;2023-11-21T04:30:51;26.17;;;11.35;;
80541;SDS011;69870;51.460;8.842;2023-11-21T04:33:17;26.83;;;10.57;;
80541;SDS011;69870;51.460;8.842;2023-11-21T04:35:44;24.48;;;10.13;;
80541;SDS011;69870;51.460;8.842;2023-11-21T04:38:11;26.38;;;9.93;;
80541;SDS011;69870;51.460;8.842;2023-11-21T04:40:39;26.88;;;9.38;;
80541;SDS011;69870;51.460;8.842;2023-11-21T04:43:05;30.38;;;11.20;;
80541;SDS011;69870;51.460;8.842;2023-11-21T04:45:32;25.00;;;9.68;;
80541;SDS011;69870;51.460;8.842;2023-11-21T04:47:59;20.75;;;9.60;;
80541;SDS011;69870;51.460;8.842;2023-11-21T04:50:25;21.92;;;9.75;;
80541;SDS011;69870;51.460;8.842;2023-11-21T04:52:52;25.20;;;9.43;;
80541;SDS011;69870;51.460;8.842;2023-11-21T04:55:18;22.00;;;9.38;;
80541;SDS011;69870;51.460;8.842;2023-11-21T04:57:46;29.92;;;9.20;;
80541;SDS011;69870;51.460;8.842;2023-11-21T05:00:13;16.95;;;8.73;;
80541;SDS011;69870;51.460;8.842;2023-11-21T05:02:41;23.17;;;10.50;;
80541;SDS011;69870;51.460;8.842;2023-11-21T05:05:09;22.73;;;9.05;;
80541;SDS011;69870;51.460;8.842;2023-11-21T05:07:36;27.20;;;10.10;;
80541;SDS011;69870;51.460;8.842;2023-11-21T05:10:03;31.73;;;10.70;;
80541;SDS011;69870;51.460;8.842;2023-11-21T05:12:33;23.10;;;10.43;;
80541;SDS011;69870;51.460;8.842;2023-11-21T05:15:02;22.25;;;9.88;;
80541;SDS011;69870;51.460;8.842;2023-11-21T05:17:33;23.80;;;10.05;;
80541;SDS011;69870;51.460;8.842;2023-11-21T05:20:00;21.15;;;9.73;;
80541;SDS011;69870;51.460;8.842;2023-11-21T05:22:29;19.13;;;9.20;;
80541;SDS011;69870;51.460;8.842;2023-11-21T05:24:55;23.42;;;11.20;;
80541;SDS011;69870;51.460;8.842;2023-11-21T05:27:24;25.70;;;10.23;;
80541;SDS011;69870;51.460;8.842;2023-11-21T05:29:50;26.45;;;12.15;;
80541;SDS011;69870;51.460;8.842;2023-11-21T05:32:18;31.05;;;13.77;;
80541;SDS011;69870;51.460;8.842;2023-11-21T05:34:45;25.55;;;10.77;;
80541;SDS011;69870;51.460;8.842;2023-11-21T05:37:12;25.58;;;10.05;;
80541;SDS011;69870;51.460;8.842;2023-11-21T05:39:38;25.38;;;10.85;;
80541;SDS011;69870;51.460;8.842;2023-11-21T05:42:05;23.77;;;9.63;;
80541;SDS011;69870;51.460;8.842;2023-11-21T05:44:34;19.23;;;9.88;;
80541;SDS011;69870;51.460;8.842;2023-11-21T05:47:00;28.98;;;11.23;;
80541;SDS011;69870;51.460;8.842;2023-11-21T05:49:28;26.08;;;10.63;;
80541;SDS011;69870;51.460;8.842;2023-11-21T05:51:55;21.17;;;10.48;;
80541;SDS011;69870;51.460;8.842;2023-11-21T05:54:22;27.50;;;12.18;;
80541;SDS011;69870;51.460;8.842;2023-11-21T05:56:49;30.33;;;11.98;;
80541;SDS011;69870;51.460;8.842;2023-11-21T05:59:15;33.30;;;13.30;;
80541;SDS011;69870;51.460;8.842;2023-11-21T06:01:42;30.05;;;12.85;;
80541;SDS011;69870;51.460;8.842;2023-11-21T06:04:09;26.85;;;11.95;;
80541;SDS011;69870;51.460;8.842;2023-11-21T06:06:37;28.52;;;12.57;;
80541;SDS011;69870;51.460;8.842;2023-11-21T06:09:04;31.77;;;11.55;;
80541;SDS011;69870;51.460;8.842;2023-11-21T06:11:30;31.85;;;13.10;;
80541;SDS011;69870;51.460;8.842;2023-11-21T06:13:57;25.38;;;12.30;;
80541;SDS011;69870;51.460;8.842;2023-11-21T06:16:24;36.38;;;13.00;;
80541;SDS011;69870;51.460;8.842;2023-11-21T06:18:50;35.95;;;13.15;;
80541;SDS011;69870;51.460;8.842;2023-11-21T06:21:17;32.95;;;12.73;;
80541;SDS011;69870;51.460;8.842;2023-11-21T06:23:45;30.65;;;13.30;;
80541;SDS011;69870;51.460;8.842;2023-11-21T06:26:11;27.95;;;12.88;;
80541;SDS011;69870;51.460;8.842;2023-11-21T06:28:38;29.50;;;13.80;;
80541;SDS011;69870;51.460;8.842;2023-11-21T06:31:05;29.25;;;14.27;;
80541;SDS011;69870;51.460;8.842;2023-11-21T06:33:31;20.88;;;10.10;;
80541;SDS011;69870;51.460;8.842;2023-11-21T06:35:58;31.98;;;14.02;;
80541;SDS011;69870;51.460;8.842;2023-11-21T06:38:28;48.63;;;22.05;;
80541;SDS011;69870;51.460;8.842;2023-11-21T06:40:58;35.83;;;16.70;;
80541;SDS011;69870;51.460;8.842;2023-11-21T06:43:26;40.75;;;17.08;;
80541;SDS011;69870;51.460;8.842;2023-11-21T06:45:53;39.28;;;20.15;;
80541;SDS011;69870;51.460;8.842;2023-11-21T06:48:19;36.08;;;19.30;;
80541;SDS011;69870;51.460;8.842;2023-11-21T06:50:46;42.70;;;19.08;;
80541;SDS011;69870;51.460;8.842;2023-11-21T06:53:12;41.75;;;19.13;;
80541;SDS011;69870;51.460;8.842;2023-11-21T06:55:40;35.72;;;17.55;;
80541;SDS011;69870;51.460;8.842;2023-11-21T06:58:07;32.13;;;18.08;;
80541;SDS011;69870;51.460;8.842;2023-11-21T07:00:34;34.60;;;18.23;;
80541;SDS011;69870;51.460;8.842;2023-11-21T07:03:00;33.65;;;17.48;;
80541;SDS011;69870;51.460;8.842;2023-11-21T07:05:27;33.53;;;17.45;;
80541;SDS011;69870;51.460;8.842;2023-11-21T07:07:53;45.45;;;19.33;;
80541;SDS011;69870;51.460;8.842;2023-11-21T07:10:20;41.97;;;16.60;;
80541;SDS011;69870;51.460;8.842;2023-11-21T07:12:47;32.97;;;15.25;;
80541;SDS011;69870;51.460;8.842;2023-11-21T07:15:15;42.55;;;18.80;;
80541;SDS011;69870;51.460;8.842;2023-11-21T07:17:41;32.83;;;16.05;;
80541;SDS011;69870;51.460;8.842;2023-11-21T07:20:09;36.28;;;16.38;;
80541;SDS011;69870;51.460;8.842;2023-11-21T07:22:37;40.03;;;17.50;;
80541;SDS011;69870;51.460;8.842;2023-11-21T07:25:04;44.75;;;21.33;;
80541;SDS011;69870;51.460;8.842;2023-11-21T07:27:32;43.22;;;20.15;;
80541;SDS011;69870;51.460;8.842;2023-11-21T07:30:00;55.80;;;22.40;;
80541;SDS011;69870;51.460;8.842;2023-11-21T07:32:30;54.65;;;19.45;;
80541;SDS011;69870;51.460;8.842;2023-11-21T07:34:57;46.40;;;20.90;;
80541;SDS011;69870;51.460;8.842;2023-11-21T07:37:24;43.38;;;20.40;;
80541;SDS011;69870;51.460;8.842;2023-11-21T07:39:53;48.35;;;22.40;;
80541;SDS011;69870;51.460;8.842;2023-11-21T07:42:21;43.53;;;21.45;;
80541;SDS011;69870;51.460;8.842;2023-11-21T07:44:48;48.00;;;19.15;;
80541;SDS011;69870;51.460;8.842;2023-11-21T07:47:15;40.58;;;19.88;;
80541;SDS011;69870;51.460;8.842;2023-11-21T07:49:43;44.90;;;21.05;;
80541;SDS011;69870;51.460;8.842;2023-11-21T07:52:10;51.60;;;21.88;;
80541;SDS011;69870;51.460;8.842;2023-11-21T07:54:36;43.15;;;20.65;;
80541;SDS011;69870;51.460;8.842;2023-11-21T07:57:03;52.75;;;21.58;;
80541;SDS011;69870;51.460;8.842;2023-11-21T07:59:30;46.25;;;22.13;;
80541;SDS011;69870;51.460;8.842;2023-11-21T08:01:56;43.08;;;20.42;;
80541;SDS011;69870;51.460;8.842;2023-11-21T08:04:23;45.60;;;20.75;;
80541;SDS011;69870;51.460;8.842;2023-11-21T08:06:51;49.67;;;22.17;;
80541;SDS011;69870;51.460;8.842;2023-11-21T08:09:17;55.63;;;21.30;;
80541;SDS011;69870;51.460;8.842;2023-11-21T08:11:44;49.03;;;20.88;;
80541;SDS011;69870;51.460;8.842;2023-11-21T08:14:11;53.95;;;20.95;;
80541;SDS011;69870;51.460;8.842;2023-11-21T08:16:38;61.00;;;21.90;;
80541;SDS011;69870;51.460;8.842;2023-11-21T08:19:04;41.97;;;20.10;;
80541;SDS011;69870;51.460;8.842;2023-11-21T08:21:31;52.70;;;20.42;;
80541;SDS011;69870;51.460;8.842;2023-11-21T08:23:59;55.63;;;23.70;;
80541;SDS011;69870;51.460;8.842;2023-11-21T08:26:25;63.47;;;25.08;;
80541;SDS011;69870;51.460;8.842;2023-11-21T08:28:52;62.67;;;24.60;;
80541;SDS011;69870;51.460;8.842;2023-11-21T08:31:23;62.72;;;22.75;;
80541;SDS011;69870;51.460;8.842;2023-11-21T08:33:49;57.22;;;24.10;;
80541;SDS011;69870;51.460;8.842;2023-11-21T08:36:16;73.00;;;26.33;;
80541;SDS011;69870;51.460;8.842;2023-11-21T08:38:42;66.38;;;25.17;;
80541;SDS011;69870;51.460;8.842;2023-11-21T08:41:11;50.83;;;24.50;;
80541;SDS011;69870;51.460;8.842;2023-11-21T08:43:39;53.85;;;24.65;;
80541;SDS011;69870;51.460;8.842;2023-11-21T08:46:07;72.10;;;27.00;;
80541;SDS011;69870;51.460;8.842;2023-11-21T08:48:35;62.72;;;26.65;;
80541;SDS011;69870;51.460;8.842;2023-11-21T08:51:02;81.90;;;28.85;;
80541;SDS011;69870;51.460;8.842;2023-11-21T08:53:28;80.68;;;31.60;;
80541;SDS011;69870;51.460;8.842;2023-11-21T08:55:56;98.85;;;36.83;;
80541;SDS011;69870;51.460;8.842;2023-11-21T08:58:24;91.38;;;33.47;;
80541;SDS011;69870;51.460;8.842;2023-11-21T09:00:50;87.15;;;34.10;;
80541;SDS011;69870;51.460;8.842;2023-11-21T09:03:17;83.10;;;31.33;;
80541;SDS011;69870;51.460;8.842;2023-11-21T09:05:43;99.38;;;33.00;;
80541;SDS011;69870;51.460;8.842;2023-11-21T09:08:10;88.38;;;31.15;;
80541;SDS011;69870;51.460;8.842;2023-11-21T09:10:36;93.85;;;30.58;;
80541;SDS011;69870;51.460;8.842;2023-11-21T09:13:04;112.88;;;35.90;;
80541;SDS011;69870;51.460;8.842;2023-11-21T09:15:32;110.03;;;37.13;;
80541;SDS011;69870;51.460;8.842;2023-11-21T09:17:59;101.55;;;34.95;;
80541;SDS011;69870;51.460;8.842;2023-11-21T09:20:26;127.93;;;38.05;;
80541;SDS011;69870;51.460;8.842;2023-11-21T09:22:53;91.20;;;34.13;;
80541;SDS011;69870;51.460;8.842;2023-11-21T09:25:20;111.65;;;34.55;;
80541;SDS011;69870;51.460;8.842;2023-11-21T09:27:47;116.40;;;34.40;;
80541;SDS011;69870;51.460;8.842;2023-11-21T09:30:14;115.63;;;35.08;;
80541;SDS011;69870;51.460;8.842;2023-11-21T09:32:43;107.85;;;34.35;;
80541;SDS011;69870;51.460;8.842;2023-11-21T09:35:10;83.47;;;29.15;;
80541;SDS011;69870;51.460;8.842;2023-11-21T09:37:39;95.88;;;32.35;;
80541;SDS011;69870;51.460;8.842;2023-11-21T09:40:06;78.80;;;28.45;;
80541;SDS011;69870;51.460;8.842;2023-11-21T09:42:38;97.75;;;28.98;;
80541;SDS011;69870;51.460;8.842;2023-11-21T09:45:09;97.30;;;29.27;;
80541;SDS011;69870;51.460;8.842;2023-11-21T09:47:42;77.90;;;27.80;;
80541;SDS011;69870;51.460;8.842;2023-11-21T09:50:09;97.28;;;30.27;;
80541;SDS011;69870;51.460;8.842;2023-11-21T09:52:38;57.45;;;22.45;;
80541;SDS011;69870;51.460;8.842;2023-11-21T09:55:13;77.83;;;24.37;;
80541;SDS011;69870;51.460;8.842;2023-11-21T09:57:42;74.00;;;23.42;;
80541;SDS011;69870;51.460;8.842;2023-11-21T10:00:09;65.82;;;24.58;;
80541;SDS011;69870;51.460;8.842;2023-11-21T10:02:37;74.93;;;22.60;;
80541;SDS011;69870;51.460;8.842;2023-11-21T10:05:07;67.22;;;23.00;;
80541;SDS011;69870;51.460;8.842;2023-11-21T10:07:36;83.22;;;26.13;;
80541;SDS011;69870;51.460;8.842;2023-11-21T10:10:05;66.55;;;21.90;;
80541;SDS011;69870;51.460;8.842;2023-11-21T10:12:34;55.55;;;18.75;;
80541;SDS011;69870;51.460;8.842;2023-11-21T10:15:02;69.00;;;23.73;;
80541;SDS011;69870;51.460;8.842;2023-11-21T10:17:31;78.43;;;25.40;;
80541;SDS011;69870;51.460;8.842;2023-11-21T10:20:09;52.28;;;19.40;;
80541;SDS011;69870;51.460;8.842;2023-11-21T10:22:38;56.85;;;19.67;;
80541;SDS011;69870;51.460;8.842;2023-11-21T10:25:07;44.25;;;17.20;;
80541;SDS011;69870;51.460;8.842;2023-11-21T10:27:34;45.35;;;18.15;;
80541;SDS011;69870;51.460;8.842;2023-11-21T10:30:00;55.25;;;18.45;;
80541;SDS011;69870;51.460;8.842;2023-11-21T10:32:28;44.53;;;16.38;;
80541;SDS011;69870;51.460;8.842;2023-11-21T10:34:57;37.85;;;14.77;;
80541;SDS011;69870;51.460;8.842;2023-11-21T10:37:26;34.42;;;12.30;;
80541;SDS011;69870;51.460;8.842;2023-11-21T10:39:56;37.40;;;12.50;;
80541;SDS011;69870;51.460;8.842;2023-11-21T10:42:23;30.73;;;12.85;;
80541;SDS011;69870;51.460;8.842;2023-11-21T10:44:52;27.55;;;9.60;;
80541;SDS011;69870;51.460;8.842;2023-11-21T10:47:19;21.70;;;7.38;;
80541;SDS011;69870;51.460;8.842;2023-11-21T10:49:48;15.20;;;6.30;;
80541;SDS011;69870;51.460;8.842;2023-11-21T10:52:15;16.05;;;6.40;;
80541;SDS011;69870;51.460;8.842;2023-11-21T10:54:44;15.10;;;5.78;;
80541;SDS011;69870;51.460;8.842;2023-11-21T10:57:10;13.40;;;5.93;;
80541;SDS011;69870;51.460;8.842;2023-11-21T10:59:40;12.23;;;5.35;;
80541;SDS011;69870;51.460;8.842;2023-11-21T11:02:10;14.10;;;5.13;;
80541;SDS011;69870;51.460;8.842;2023-11-21T11:04:48;10.38;;;4.35;;
80541;SDS011;69870;51.460;8.842;2023-11-21T11:07:14;11.45;;;4.65;;
80541;SDS011;69870;51.460;8.842;2023-11-21T11:09:43;11.82;;;4.20;;
80541;SDS011;69870;51.460;8.842;2023-11-21T11:12:12;9.93;;;4.85;;
80541;SDS011;69870;51.460;8.842;2023-11-21T11:14:40;10.30;;;3.80;;
80541;SDS011;69870;51.460;8.842;2023-11-21T11:17:08;7.10;;;3.47;;
80541;SDS011;69870;51.460;8.842;2023-11-21T11:19:36;7.88;;;4.25;;
80541;SDS011;69870;51.460;8.842;2023-11-21T11:22:08;8.43;;;3.67;;
80541;SDS011;69870;51.460;8.842;2023-11-21T11:27:44;7.82;;;4.13;;
80541;SDS011;69870;51.460;8.842;2023-11-21T11:30:21;9.65;;;3.70;;
80541;SDS011;69870;51.460;8.842;2023-11-21T11:33:04;7.72;;;4.10;;
80541;SDS011;69870;51.460;8.842;2023-11-21T11:35:40;14.68;;;5.22;;
80541;SDS011;69870;51.460;8.842;2023-11-21T11:38:17;9.60;;;5.13;;
80541;SDS011;69870;51.460;8.842;2023-11-21T11:40:46;10.85;;;5.57;;
80541;SDS011;69870;51.460;8.842;2023-11-21T11:43:13;13.68;;;5.63;;
80541;SDS011;69870;51.460;8.842;2023-11-21T11:45:50;11.27;;;4.50;;
80541;SDS011;69870;51.460;8.842;2023-11-21T11:48:19;10.32;;;5.47;;
80541;SDS011;69870;51.460;8.842;2023-11-21T11:51:03;13.73;;;5.40;;
80541;SDS011;69870;51.460;8.842;2023-11-21T11:53:35;9.68;;;4.82;;
80541;SDS011;69870;51.460;8.842;2023-11-21T11:56:20;12.85;;;5.68;;
80541;SDS011;69870;51.460;8.842;2023-11-21T11:58:51;10.13;;;4.95;;
80541;SDS011;69870;51.460;8.842;2023-11-21T12:01:18;9.70;;;4.97;;
80541;SDS011;69870;51.460;8.842;2023-11-21T12:03:47;10.77;;;5.38;;
80541;SDS011;69870;51.460;8.842;2023-11-21T12:06:50;13.80;;;7.28;;
80541;SDS011;69870;51.460;8.842;2023-11-21T12:09:18;12.85;;;6.18;;
80541;SDS011;69870;51.460;8.842;2023-11-21T12:11:47;13.13;;;6.90;;
80541;SDS011;69870;51.460;8.842;2023-11-21T12:14:14;16.80;;;7.82;;
80541;SDS011;69870;51.460;8.842;2023-11-21T12:16:41;25.85;;;9.00;;
80541;SDS011;69870;51.460;8.842;2023-11-21T12:19:09;22.30;;;10.85;;
80541;SDS011;69870;51.460;8.842;2023-11-21T12:21:36;24.85;;;12.00;;
80541;SDS011;69870;51.460;8.842;2023-11-21T12:24:03;22.52;;;11.38;;
80541;SDS011;69870;51.460;8.842;2023-11-21T12:26:33;28.02;;;12.45;;
80541;SDS011;69870;51.460;8.842;2023-11-21T12:29:01;30.00;;;12.65;;
80541;SDS011;69870;51.460;8.842;2023-11-21T12:31:30;28.05;;;12.23;;
80541;SDS011;69870;51.460;8.842;2023-11-21T12:33:57;29.85;;;12.70;;
80541;SDS011;69870;51.460;8.842;2023-11-21T12:36:23;27.92;;;12.30;;
80541;SDS011;69870;51.460;8.842;2023-11-21T12:38:51;28.83;;;13.35;;
80541;SDS011;69870;51.460;8.842;2023-11-21T12:41:17;37.83;;;15.80;;
80541;SDS011;69870;51.460;8.842;2023-11-21T12:43:44;46.25;;;17.25;;
80541;SDS011;69870;51.460;8.842;2023-11-21T12:46:13;49.88;;;16.50;;
80541;SDS011;69870;51.460;8.842;2023-11-21T12:48:42;48.72;;;17.88;;
80541;SDS011;69870;51.460;8.842;2023-11-21T12:51:10;56.75;;;18.50;;
80541;SDS011;69870;51.460;8.842;2023-11-21T12:53:39;43.97;;;17.50;;
80541;SDS011;69870;51.460;8.842;2023-11-21T12:56:06;53.40;;;19.08;;
80541;SDS011;69870;51.460;8.842;2023-11-21T12:58:35;44.13;;;18.80;;
80541;SDS011;69870;51.460;8.842;2023-11-21T13:01:01;44.60;;;18.52;;
80541;SDS011;69870;51.460;8.842;2023-11-21T13:03:30;45.53;;;18.73;;
80541;SDS011;69870;51.460;8.842;2023-11-21T13:05:58;44.10;;;20.38;;
80541;SDS011;69870;51.460;8.842;2023-11-21T13:08:26;42.20;;;19.45;;
80541;SDS011;69870;51.460;8.842;2023-11-21T13:10:55;39.45;;;18.65;;
80541;SDS011;69870;51.460;8.842;2023-11-21T13:13:25;42.95;;;19.80;;
80541;SDS011;69870;51.460;8.842;2023-11-21T13:15:53;33.85;;;18.20;;
80541;SDS011;69870;51.460;8.842;2023-11-21T13:18:23;34.80;;;17.70;;
80541;SDS011;69870;51.460;8.842;2023-11-21T13:20:53;34.10;;;17.15;;
80541;SDS011;69870;51.460;8.842;2023-11-21T13:23:20;30.55;;;16.05;;
80541;SDS011;69870;51.460;8.842;2023-11-21T13:25:48;28.30;;;14.73;;
80541;SDS011;69870;51.460;8.842;2023-11-21T13:28:15;26.23;;;13.88;;
80541;SDS011;69870;51.460;8.842;2023-11-21T13:30:43;22.23;;;10.75;;
80541;SDS011;69870;51.460;8.842;2023-11-21T13:33:10;18.95;;;11.02;;
80541;SDS011;69870;51.460;8.842;2023-11-21T13:35:43;17.50;;;9.48;;
80541;SDS011;69870;51.460;8.842;2023-11-21T13:38:15;19.20;;;9.70;;
80541;SDS011;69870;51.460;8.842;2023-11-21T13:40:46;18.55;;;8.75;;
80541;SDS011;69870;51.460;8.842;2023-11-21T13:43:15;14.63;;;7.53;;
80541;SDS011;69870;51.460;8.842;2023-11-21T13:45:44;15.95;;;7.97;;
80541;SDS011;69870;51.460;8.842;2023-11-21T13:48:12;13.80;;;6.75;;
80541;SDS011;69870;51.460;8.842;2023-11-21T13:50:39;12.50;;;7.22;;
80541;SDS011;69870;51.460;8.842;2023-11-21T13:53:16;12.20;;;6.70;;
80541;SDS011;69870;51.460;8.842;2023-11-21T13:55:47;12.75;;;6.07;;
80541;SDS011;69870;51.460;8.842;2023-11-21T13:58:15;9.43;;;6.07;;
80541;SDS011;69870;51.460;8.842;2023-11-21T14:00:47;12.43;;;6.05;;
80541;SDS011;69870;51.460;8.842;2023-11-21T14:03:20;8.77;;;6.03;;
80541;SDS011;69870;51.460;8.842;2023-11-21T14:05:47;10.52;;;5.97;;
80541;SDS011;69870;51.460;8.842;2023-11-21T14:08:18;10.40;;;6.35;;
80541;SDS011;69870;51.460;8.842;2023-11-21T14:10:46;15.00;;;7.10;;
80541;SDS011;69870;51.460;8.842;2023-11-21T14:13:16;9.82;;;6.80;;
80541;SDS011;69870;51.460;8.842;2023-11-21T14:15:43;10.20;;;6.57;;
80541;SDS011;69870;51.460;8.842;2023-11-21T14:18:11;11.07;;;7.28;;
80541;SDS011;69870;51.460;8.842;2023-11-21T14:20:42;18.05;;;7.25;;
80541;SDS011;69870;51.460;8.842;2023-11-21T14:23:09;11.40;;;7.35;;
80541;SDS011;69870;51.460;8.842;2023-11-21T14:25:38;16.67;;;8.50;;
80541;SDS011;69870;51.460;8.842;2023-11-21T14:28:07;14.25;;;7.70;;
80541;SDS011;69870;51.460;8.842;2023-11-21T14:30:36;19.45;;;8.45;;
80541;SDS011;69870;51.460;8.842;2023-11-21T14:33:04;16.27;;;8.00;;
80541;SDS011;69870;51.460;8.842;2023-11-21T14:35:33;17.48;;;8.93;;